Terminal Aerodrome Forecast
Issued by NWS

Home | Current Version | Previous Version | Text Only | Print | Product List | Glossary On
Versions: 1 2 3 4 5 6 7 8 9 10 11 12 13 14 15 16 17 18
000
FTUS41 KALY 251147
TAFPSF
TAF
KPSF 251147Z 2512/2612 VRB03KT P6SM FEW250
     FM251400 29007KT P6SM FEW200
     FM251600 27010G18KT P6SM SCT050
     FM260000 29008KT P6SM SCT080
     FM260500 VRB03KT P6SM SCT250=

USA.gov is the U.S. government's official web portal to all federal, state and local government web resources and services.